Highgate Springs, Vermont
Current Conditions -  °F | °C
As of 3:35 AM on Saturday 22 Nov 2014 (Local Time) from KFSO Reporting Station
Broken Clouds Broken Clouds  
Wind Chill: 19°   Ceiling: 3700
Heat Index: 26°   Visibility: 10mi
Dew Point: 12°   Wind: 6mph
Humidity: 56%   Direction: 220°SW
Pressure: 30.29"   Gusts: NA
Location:  44.98°N, 73.11°W
Report Text: KFSO 220835Z AUTO 22005KT 10SM BKN037 BKN090 M04/M11 A3029 RMK AO2 T10361112
Loading
Personal Weather Stations






























Interactive Weather Map New forecast layout! Learn more

10-Day Weather Forecast

Advertisements
Track Severe Weather on mobile